sensor_id;sensor_type;location;lat;lon;timestamp;temperature;humidity
16198;DHT22;8206;51.440;6.914;2023-02-11T00:01:05;6.10;1.00
16198;DHT22;8206;51.440;6.914;2023-02-11T00:03:32;6.00;1.00
16198;DHT22;8206;51.440;6.914;2023-02-11T00:06:00;6.00;1.00
16198;DHT22;8206;51.440;6.914;2023-02-11T00:08:27;6.00;99.90
16198;DHT22;8206;51.440;6.914;2023-02-11T00:10:56;6.00;1.00
16198;DHT22;8206;51.440;6.914;2023-02-11T00:13:24;6.00;1.00
16198;DHT22;8206;51.440;6.914;2023-02-11T00:15:52;6.10;1.00
16198;DHT22;8206;51.440;6.914;2023-02-11T00:18:19;6.10;99.90
16198;DHT22;8206;51.440;6.914;2023-02-11T00:20:46;6.10;35.20
16198;DHT22;8206;51.440;6.914;2023-02-11T00:23:13;6.10;92.00
16198;DHT22;8206;51.440;6.914;2023-02-11T00:25:40;6.00;99.90
16198;DHT22;8206;51.440;6.914;2023-02-11T00:28:07;6.00;1.00
16198;DHT22;8206;51.440;6.914;2023-02-11T00:30:35;6.10;99.90
16198;DHT22;8206;51.440;6.914;2023-02-11T00:33:02;6.10;99.90
16198;DHT22;8206;51.440;6.914;2023-02-11T00:35:29;6.20;99.90
16198;DHT22;8206;51.440;6.914;2023-02-11T00:37:56;6.20;99.90
16198;DHT22;8206;51.440;6.914;2023-02-11T00:40:22;6.20;99.90
16198;DHT22;8206;51.440;6.914;2023-02-11T00:42:49;6.30;99.90
16198;DHT22;8206;51.440;6.914;2023-02-11T00:45:16;6.30;99.90
16198;DHT22;8206;51.440;6.914;2023-02-11T00:47:46;6.30;99.90
16198;DHT22;8206;51.440;6.914;2023-02-11T00:50:13;6.30;99.90
16198;DHT22;8206;51.440;6.914;2023-02-11T00:52:40;6.30;93.50
16198;DHT22;8206;51.440;6.914;2023-02-11T00:55:07;6.30;99.90
16198;DHT22;8206;51.440;6.914;2023-02-11T00:57:34;6.30;99.90
16198;DHT22;8206;51.440;6.914;2023-02-11T01:00:01;6.30;1.00
16198;DHT22;8206;51.440;6.914;2023-02-11T01:02:27;6.40;99.90
16198;DHT22;8206;51.440;6.914;2023-02-11T01:04:56;6.30;99.90
16198;DHT22;8206;51.440;6.914;2023-02-11T01:07:24;6.30;99.90
16198;DHT22;8206;51.440;6.914;2023-02-11T01:09:50;6.30;99.90
16198;DHT22;8206;51.440;6.914;2023-02-11T01:12:17;6.30;99.90
16198;DHT22;8206;51.440;6.914;2023-02-11T01:14:44;6.40;99.90
16198;DHT22;8206;51.440;6.914;2023-02-11T01:17:11;6.40;99.90
16198;DHT22;8206;51.440;6.914;2023-02-11T01:19:38;6.40;99.90
16198;DHT22;8206;51.440;6.914;2023-02-11T01:22:06;6.40;99.90
16198;DHT22;8206;51.440;6.914;2023-02-11T01:24:33;6.40;99.90
16198;DHT22;8206;51.440;6.914;2023-02-11T01:26:59;6.50;99.90
16198;DHT22;8206;51.440;6.914;2023-02-11T01:29:26;6.50;99.90
16198;DHT22;8206;51.440;6.914;2023-02-11T01:31:53;6.50;99.90
16198;DHT22;8206;51.440;6.914;2023-02-11T01:34:20;6.40;99.90
16198;DHT22;8206;51.440;6.914;2023-02-11T01:36:46;6.40;99.90
16198;DHT22;8206;51.440;6.914;2023-02-11T01:39:14;6.40;99.90
16198;DHT22;8206;51.440;6.914;2023-02-11T01:41:41;6.40;99.90
16198;DHT22;8206;51.440;6.914;2023-02-11T01:44:23;6.40;99.90
16198;DHT22;8206;51.440;6.914;2023-02-11T01:46:51;6.40;99.90
16198;DHT22;8206;51.440;6.914;2023-02-11T01:49:21;6.40;99.90
16198;DHT22;8206;51.440;6.914;2023-02-11T01:51:52;6.50;99.90
16198;DHT22;8206;51.440;6.914;2023-02-11T01:54:21;6.40;99.90
16198;DHT22;8206;51.440;6.914;2023-02-11T01:57:09;6.40;99.90
16198;DHT22;8206;51.440;6.914;2023-02-11T01:59:56;6.40;99.90
16198;DHT22;8206;51.440;6.914;2023-02-11T02:02:29;6.40;99.90
16198;DHT22;8206;51.440;6.914;2023-02-11T02:05:02;6.40;99.90
16198;DHT22;8206;51.440;6.914;2023-02-11T02:07:35;6.40;99.90
16198;DHT22;8206;51.440;6.914;2023-02-11T02:10:08;6.50;99.90
16198;DHT22;8206;51.440;6.914;2023-02-11T02:12:36;6.50;99.90
16198;DHT22;8206;51.440;6.914;2023-02-11T02:15:21;6.50;99.90
16198;DHT22;8206;51.440;6.914;2023-02-11T02:17:56;6.50;99.90
16198;DHT22;8206;51.440;6.914;2023-02-11T02:20:48;6.40;99.90
16198;DHT22;8206;51.440;6.914;2023-02-11T02:29:30;6.50;99.90
16198;DHT22;8206;51.440;6.914;2023-02-11T02:32:39;6.40;99.90
16198;DHT22;8206;51.440;6.914;2023-02-11T02:35:14;6.40;99.90
16198;DHT22;8206;51.440;6.914;2023-02-11T02:37:48;6.30;99.90
16198;DHT22;8206;51.440;6.914;2023-02-11T02:40:20;6.30;99.90
16198;DHT22;8206;51.440;6.914;2023-02-11T02:42:49;6.30;99.90
16198;DHT22;8206;51.440;6.914;2023-02-11T02:45:16;6.30;99.90
16198;DHT22;8206;51.440;6.914;2023-02-11T02:47:45;6.30;99.90
16198;DHT22;8206;51.440;6.914;2023-02-11T02:50:14;6.20;99.90
16198;DHT22;8206;51.440;6.914;2023-02-11T02:52:53;6.20;99.90
16198;DHT22;8206;51.440;6.914;2023-02-11T02:55:31;6.20;99.90
16198;DHT22;8206;51.440;6.914;2023-02-11T02:58:29;6.20;99.90
16198;DHT22;8206;51.440;6.914;2023-02-11T03:01:02;6.10;99.90
16198;DHT22;8206;51.440;6.914;2023-02-11T03:03:41;6.10;99.90
16198;DHT22;8206;51.440;6.914;2023-02-11T03:06:14;6.10;99.90
16198;DHT22;8206;51.440;6.914;2023-02-11T03:08:45;6.10;99.90
16198;DHT22;8206;51.440;6.914;2023-02-11T03:11:16;6.10;99.90
16198;DHT22;8206;51.440;6.914;2023-02-11T03:13:45;6.10;99.90
16198;DHT22;8206;51.440;6.914;2023-02-11T03:16:15;6.10;99.90
16198;DHT22;8206;51.440;6.914;2023-02-11T03:18:48;6.10;99.90
16198;DHT22;8206;51.440;6.914;2023-02-11T03:21:16;6.00;99.90
16198;DHT22;8206;51.440;6.914;2023-02-11T03:23:48;6.00;99.90
16198;DHT22;8206;51.440;6.914;2023-02-11T03:26:20;6.00;99.90
16198;DHT22;8206;51.440;6.914;2023-02-11T03:28:54;6.10;99.90
16198;DHT22;8206;51.440;6.914;2023-02-11T03:31:28;6.10;99.90
16198;DHT22;8206;51.440;6.914;2023-02-11T03:34:01;6.10;99.90
16198;DHT22;8206;51.440;6.914;2023-02-11T03:36:37;6.10;99.90
16198;DHT22;8206;51.440;6.914;2023-02-11T03:39:12;6.10;99.90
16198;DHT22;8206;51.440;6.914;2023-02-11T03:41:41;6.00;99.90
16198;DHT22;8206;51.440;6.914;2023-02-11T03:44:09;6.00;99.90
16198;DHT22;8206;51.440;6.914;2023-02-11T03:46:39;6.00;99.90
16198;DHT22;8206;51.440;6.914;2023-02-11T03:49:11;6.10;99.90
16198;DHT22;8206;51.440;6.914;2023-02-11T03:51:39;6.00;99.90
16198;DHT22;8206;51.440;6.914;2023-02-11T03:54:10;6.00;99.90
16198;DHT22;8206;51.440;6.914;2023-02-11T03:56:43;6.00;99.90
16198;DHT22;8206;51.440;6.914;2023-02-11T03:59:12;6.10;99.90
16198;DHT22;8206;51.440;6.914;2023-02-11T04:01:39;6.10;99.90
16198;DHT22;8206;51.440;6.914;2023-02-11T04:04:06;6.00;99.90
16198;DHT22;8206;51.440;6.914;2023-02-11T04:06:34;6.00;99.90
16198;DHT22;8206;51.440;6.914;2023-02-11T04:09:01;6.00;99.90
16198;DHT22;8206;51.440;6.914;2023-02-11T04:11:28;6.00;99.90
16198;DHT22;8206;51.440;6.914;2023-02-11T04:13:55;6.10;99.90
16198;DHT22;8206;51.440;6.914;2023-02-11T04:16:21;6.00;99.90
16198;DHT22;8206;51.440;6.914;2023-02-11T04:18:48;6.00;99.90
16198;DHT22;8206;51.440;6.914;2023-02-11T04:21:15;6.00;99.90
16198;DHT22;8206;51.440;6.914;2023-02-11T04:23:43;6.00;99.90
16198;DHT22;8206;51.440;6.914;2023-02-11T04:26:10;6.10;99.90
16198;DHT22;8206;51.440;6.914;2023-02-11T04:28:36;6.10;99.90
16198;DHT22;8206;51.440;6.914;2023-02-11T04:31:03;6.10;99.90
16198;DHT22;8206;51.440;6.914;2023-02-11T04:33:30;6.10;99.90
16198;DHT22;8206;51.440;6.914;2023-02-11T04:35:57;6.10;99.90
16198;DHT22;8206;51.440;6.914;2023-02-11T04:38:23;6.10;99.90
16198;DHT22;8206;51.440;6.914;2023-02-11T04:40:52;6.00;99.90
16198;DHT22;8206;51.440;6.914;2023-02-11T04:43:18;6.00;99.90
16198;DHT22;8206;51.440;6.914;2023-02-11T04:45:45;6.00;99.90
16198;DHT22;8206;51.440;6.914;2023-02-11T04:48:12;6.00;99.90
16198;DHT22;8206;51.440;6.914;2023-02-11T04:50:38;6.00;99.90
16198;DHT22;8206;51.440;6.914;2023-02-11T04:53:05;6.00;99.90
16198;DHT22;8206;51.440;6.914;2023-02-11T04:55:32;6.00;99.90
16198;DHT22;8206;51.440;6.914;2023-02-11T04:58:00;6.00;99.90
16198;DHT22;8206;51.440;6.914;2023-02-11T05:00:27;6.00;99.90
16198;DHT22;8206;51.440;6.914;2023-02-11T05:02:53;6.00;99.90
16198;DHT22;8206;51.440;6.914;2023-02-11T05:05:20;6.00;99.90
16198;DHT22;8206;51.440;6.914;2023-02-11T05:07:47;6.00;99.90
16198;DHT22;8206;51.440;6.914;2023-02-11T05:10:14;6.00;99.90
16198;DHT22;8206;51.440;6.914;2023-02-11T05:12:41;6.00;99.90
16198;DHT22;8206;51.440;6.914;2023-02-11T05:15:09;6.00;99.90
16198;DHT22;8206;51.440;6.914;2023-02-11T05:17:35;6.00;99.90
16198;DHT22;8206;51.440;6.914;2023-02-11T05:20:03;6.00;99.90
16198;DHT22;8206;51.440;6.914;2023-02-11T05:22:29;5.90;99.90
16198;DHT22;8206;51.440;6.914;2023-02-11T05:24:56;6.00;99.90
16198;DHT22;8206;51.440;6.914;2023-02-11T05:27:23;6.00;99.90
16198;DHT22;8206;51.440;6.914;2023-02-11T05:29:50;5.90;99.90
16198;DHT22;8206;51.440;6.914;2023-02-11T05:32:18;5.90;99.90
16198;DHT22;8206;51.440;6.914;2023-02-11T05:34:45;6.00;99.90
16198;DHT22;8206;51.440;6.914;2023-02-11T05:37:11;5.90;99.90
16198;DHT22;8206;51.440;6.914;2023-02-11T05:39:38;5.90;99.90
16198;DHT22;8206;51.440;6.914;2023-02-11T05:42:05;6.00;99.90
16198;DHT22;8206;51.440;6.914;2023-02-11T05:44:32;5.90;99.90
16198;DHT22;8206;51.440;6.914;2023-02-11T05:46:59;6.00;99.90
16198;DHT22;8206;51.440;6.914;2023-02-11T05:49:27;6.00;99.90
16198;DHT22;8206;51.440;6.914;2023-02-11T05:51:53;6.00;99.90
16198;DHT22;8206;51.440;6.914;2023-02-11T05:54:20;6.00;99.90
16198;DHT22;8206;51.440;6.914;2023-02-11T05:56:47;6.00;99.90
16198;DHT22;8206;51.440;6.914;2023-02-11T05:59:14;6.00;99.90
16198;DHT22;8206;51.440;6.914;2023-02-11T06:01:41;5.90;99.90
16198;DHT22;8206;51.440;6.914;2023-02-11T06:04:08;5.90;99.90
16198;DHT22;8206;51.440;6.914;2023-02-11T06:06:36;6.00;99.90
16198;DHT22;8206;51.440;6.914;2023-02-11T06:09:03;6.00;99.90
16198;DHT22;8206;51.440;6.914;2023-02-11T06:11:29;6.00;99.90
16198;DHT22;8206;51.440;6.914;2023-02-11T06:13:56;6.00;99.90
16198;DHT22;8206;51.440;6.914;2023-02-11T06:16:23;6.00;99.90
16198;DHT22;8206;51.440;6.914;2023-02-11T06:18:50;6.10;99.90
16198;DHT22;8206;51.440;6.914;2023-02-11T06:21:16;6.00;99.90
16198;DHT22;8206;51.440;6.914;2023-02-11T06:23:44;6.10;99.90
16198;DHT22;8206;51.440;6.914;2023-02-11T06:26:17;6.00;99.90
16198;DHT22;8206;51.440;6.914;2023-02-11T06:28:43;6.00;99.90
16198;DHT22;8206;51.440;6.914;2023-02-11T06:31:10;6.00;99.90
16198;DHT22;8206;51.440;6.914;2023-02-11T06:33:37;6.00;99.90
16198;DHT22;8206;51.440;6.914;2023-02-11T06:36:10;6.00;99.90
16198;DHT22;8206;51.440;6.914;2023-02-11T06:38:37;6.00;99.90
16198;DHT22;8206;51.440;6.914;2023-02-11T06:41:08;6.10;99.90
16198;DHT22;8206;51.440;6.914;2023-02-11T06:43:35;6.10;99.90
16198;DHT22;8206;51.440;6.914;2023-02-11T06:46:02;6.10;99.90
16198;DHT22;8206;51.440;6.914;2023-02-11T06:48:28;6.00;99.90
16198;DHT22;8206;51.440;6.914;2023-02-11T06:50:55;6.00;99.90
16198;DHT22;8206;51.440;6.914;2023-02-11T06:53:22;6.10;99.90
16198;DHT22;8206;51.440;6.914;2023-02-11T06:55:49;6.00;99.90
16198;DHT22;8206;51.440;6.914;2023-02-11T06:58:17;6.00;99.90
16198;DHT22;8206;51.440;6.914;2023-02-11T07:00:44;6.10;99.90
16198;DHT22;8206;51.440;6.914;2023-02-11T07:03:11;6.10;99.90
16198;DHT22;8206;51.440;6.914;2023-02-11T07:05:41;6.00;99.90
16198;DHT22;8206;51.440;6.914;2023-02-11T07:08:08;6.00;99.90
16198;DHT22;8206;51.440;6.914;2023-02-11T07:10:35;6.00;99.90
16198;DHT22;8206;51.440;6.914;2023-02-11T07:13:01;6.00;99.90
16198;DHT22;8206;51.440;6.914;2023-02-11T07:15:29;6.10;99.90
16198;DHT22;8206;51.440;6.914;2023-02-11T07:17:56;6.10;99.90
16198;DHT22;8206;51.440;6.914;2023-02-11T07:20:24;6.10;99.90
16198;DHT22;8206;51.440;6.914;2023-02-11T07:22:51;6.10;99.90
16198;DHT22;8206;51.440;6.914;2023-02-11T07:25:18;6.10;99.90
16198;DHT22;8206;51.440;6.914;2023-02-11T07:27:44;6.10;99.90
16198;DHT22;8206;51.440;6.914;2023-02-11T07:30:12;6.10;99.90
16198;DHT22;8206;51.440;6.914;2023-02-11T07:32:40;6.10;99.90
16198;DHT22;8206;51.440;6.914;2023-02-11T07:35:07;6.10;99.90
16198;DHT22;8206;51.440;6.914;2023-02-11T07:37:34;6.10;99.90
16198;DHT22;8206;51.440;6.914;2023-02-11T07:40:02;6.10;99.90
16198;DHT22;8206;51.440;6.914;2023-02-11T07:42:28;6.20;99.90
16198;DHT22;8206;51.440;6.914;2023-02-11T07:44:55;6.20;99.90
16198;DHT22;8206;51.440;6.914;2023-02-11T07:47:22;6.20;99.90
16198;DHT22;8206;51.440;6.914;2023-02-11T07:49:50;6.20;99.90
16198;DHT22;8206;51.440;6.914;2023-02-11T07:52:17;6.30;99.90
16198;DHT22;8206;51.440;6.914;2023-02-11T07:54:44;6.30;99.90
16198;DHT22;8206;51.440;6.914;2023-02-11T07:57:11;6.30;99.90
16198;DHT22;8206;51.440;6.914;2023-02-11T07:59:37;6.30;99.90
16198;DHT22;8206;51.440;6.914;2023-02-11T08:02:04;6.40;99.90
16198;DHT22;8206;51.440;6.914;2023-02-11T08:04:31;6.40;99.90
16198;DHT22;8206;51.440;6.914;2023-02-11T08:06:59;6.40;99.90
16198;DHT22;8206;51.440;6.914;2023-02-11T08:09:25;6.40;99.90
16198;DHT22;8206;51.440;6.914;2023-02-11T08:11:52;6.40;99.90
16198;DHT22;8206;51.440;6.914;2023-02-11T08:14:19;6.50;99.90
16198;DHT22;8206;51.440;6.914;2023-02-11T08:16:46;6.50;99.90
16198;DHT22;8206;51.440;6.914;2023-02-11T08:19:14;6.60;99.90
16198;DHT22;8206;51.440;6.914;2023-02-11T08:21:42;6.50;99.90
16198;DHT22;8206;51.440;6.914;2023-02-11T08:24:10;6.50;99.90
16198;DHT22;8206;51.440;6.914;2023-02-11T08:26:38;6.60;99.90
16198;DHT22;8206;51.440;6.914;2023-02-11T08:29:08;6.60;99.90
16198;DHT22;8206;51.440;6.914;2023-02-11T08:31:36;6.60;99.90
16198;DHT22;8206;51.440;6.914;2023-02-11T08:34:04;6.60;99.90
16198;DHT22;8206;51.440;6.914;2023-02-11T08:36:32;6.60;99.90
16198;DHT22;8206;51.440;6.914;2023-02-11T08:39:02;6.60;99.90
16198;DHT22;8206;51.440;6.914;2023-02-11T08:41:31;6.60;99.90
16198;DHT22;8206;51.440;6.914;2023-02-11T08:43:58;6.60;99.90
16198;DHT22;8206;51.440;6.914;2023-02-11T08:46:25;6.60;99.90
16198;DHT22;8206;51.440;6.914;2023-02-11T08:48:52;6.70;99.90
16198;DHT22;8206;51.440;6.914;2023-02-11T08:51:21;6.70;99.90
16198;DHT22;8206;51.440;6.914;2023-02-11T08:53:48;6.70;99.90
16198;DHT22;8206;51.440;6.914;2023-02-11T08:56:17;6.70;99.90
16198;DHT22;8206;51.440;6.914;2023-02-11T08:58:46;6.80;99.90
16198;DHT22;8206;51.440;6.914;2023-02-11T09:01:16;6.80;99.90
16198;DHT22;8206;51.440;6.914;2023-02-11T09:03:43;6.90;99.90
16198;DHT22;8206;51.440;6.914;2023-02-11T09:06:11;6.80;99.90
16198;DHT22;8206;51.440;6.914;2023-02-11T09:08:41;6.80;99.90
16198;DHT22;8206;51.440;6.914;2023-02-11T09:11:09;6.90;99.90
16198;DHT22;8206;51.440;6.914;2023-02-11T09:13:36;6.90;99.90
16198;DHT22;8206;51.440;6.914;2023-02-11T09:16:05;7.00;99.90
16198;DHT22;8206;51.440;6.914;2023-02-11T09:18:32;7.00;99.90
16198;DHT22;8206;51.440;6.914;2023-02-11T09:21:01;7.10;99.90
16198;DHT22;8206;51.440;6.914;2023-02-11T09:23:28;7.10;99.90
16198;DHT22;8206;51.440;6.914;2023-02-11T09:25:55;7.00;99.90
16198;DHT22;8206;51.440;6.914;2023-02-11T09:28:22;7.10;99.90
16198;DHT22;8206;51.440;6.914;2023-02-11T09:30:48;7.00;99.90
16198;DHT22;8206;51.440;6.914;2023-02-11T09:33:17;7.10;99.90
16198;DHT22;8206;51.440;6.914;2023-02-11T09:35:43;7.20;99.90
16198;DHT22;8206;51.440;6.914;2023-02-11T09:38:10;7.20;99.90
16198;DHT22;8206;51.440;6.914;2023-02-11T09:40:41;7.20;99.90
16198;DHT22;8206;51.440;6.914;2023-02-11T09:43:11;7.20;99.90
16198;DHT22;8206;51.440;6.914;2023-02-11T09:45:40;7.30;99.90
16198;DHT22;8206;51.440;6.914;2023-02-11T09:48:13;7.30;99.90
16198;DHT22;8206;51.440;6.914;2023-02-11T09:50:43;7.40;99.90
16198;DHT22;8206;51.440;6.914;2023-02-11T09:53:15;7.40;99.90
16198;DHT22;8206;51.440;6.914;2023-02-11T09:55:45;7.40;99.90
16198;DHT22;8206;51.440;6.914;2023-02-11T09:58:14;7.50;99.90
16198;DHT22;8206;51.440;6.914;2023-02-11T10:00:45;7.50;99.90
16198;DHT22;8206;51.440;6.914;2023-02-11T10:03:33;7.60;99.90
16198;DHT22;8206;51.440;6.914;2023-02-11T10:06:19;7.60;99.90
16198;DHT22;8206;51.440;6.914;2023-02-11T10:08:58;7.70;99.90
16198;DHT22;8206;51.440;6.914;2023-02-11T10:11:35;7.70;99.90
16198;DHT22;8206;51.440;6.914;2023-02-11T10:14:12;7.70;99.90
16198;DHT22;8206;51.440;6.914;2023-02-11T10:16:55;7.70;99.90
16198;DHT22;8206;51.440;6.914;2023-02-11T10:19:37;7.80;99.90
16198;DHT22;8206;51.440;6.914;2023-02-11T10:22:12;7.80;99.90
16198;DHT22;8206;51.440;6.914;2023-02-11T10:24:41;7.80;99.90
16198;DHT22;8206;51.440;6.914;2023-02-11T10:27:16;7.90;99.90
16198;DHT22;8206;51.440;6.914;2023-02-11T10:29:48;7.70;99.90
16198;DHT22;8206;51.440;6.914;2023-02-11T10:32:26;7.80;99.90
16198;DHT22;8206;51.440;6.914;2023-02-11T10:34:56;7.80;99.90
16198;DHT22;8206;51.440;6.914;2023-02-11T10:37:25;7.90;99.90
16198;DHT22;8206;51.440;6.914;2023-02-11T10:39:52;7.90;99.90
16198;DHT22;8206;51.440;6.914;2023-02-11T10:42:18;8.00;99.90
16198;DHT22;8206;51.440;6.914;2023-02-11T10:44:56;8.00;99.90
16198;DHT22;8206;51.440;6.914;2023-02-11T10:47:25;8.10;99.90
16198;DHT22;8206;51.440;6.914;2023-02-11T10:49:53;8.20;99.90
16198;DHT22;8206;51.440;6.914;2023-02-11T10:52:22;8.20;99.90
16198;DHT22;8206;51.440;6.914;2023-02-11T10:54:59;8.20;99.90
16198;DHT22;8206;51.440;6.914;2023-02-11T10:57:29;8.10;99.90
16198;DHT22;8206;51.440;6.914;2023-02-11T10:59:58;8.10;99.90
16198;DHT22;8206;51.440;6.914;2023-02-11T11:02:28;8.10;99.90
16198;DHT22;8206;51.440;6.914;2023-02-11T11:05:00;8.00;99.90
16198;DHT22;8206;51.440;6.914;2023-02-11T11:07:30;8.00;99.90
16198;DHT22;8206;51.440;6.914;2023-02-11T11:10:02;8.00;99.90
16198;DHT22;8206;51.440;6.914;2023-02-11T11:12:35;7.90;99.90
16198;DHT22;8206;51.440;6.914;2023-02-11T11:15:14;7.90;99.90
16198;DHT22;8206;51.440;6.914;2023-02-11T11:17:43;7.90;99.90
16198;DHT22;8206;51.440;6.914;2023-02-11T11:20:17;7.90;99.90
16198;DHT22;8206;51.440;6.914;2023-02-11T11:22:44;7.90;99.90
16198;DHT22;8206;51.440;6.914;2023-02-11T11:25:25;7.90;99.90
16198;DHT22;8206;51.440;6.914;2023-02-11T11:27:55;8.00;99.90
16198;DHT22;8206;51.440;6.914;2023-02-11T11:30:25;8.00;99.90
16198;DHT22;8206;51.440;6.914;2023-02-11T11:32:53;8.00;99.90
16198;DHT22;8206;51.440;6.914;2023-02-11T11:35:24;8.00;99.90
16198;DHT22;8206;51.440;6.914;2023-02-11T11:37:54;8.00;99.90
16198;DHT22;8206;51.440;6.914;2023-02-11T11:40:26;8.00;99.90
16198;DHT22;8206;51.440;6.914;2023-02-11T11:43:06;8.10;99.90
16198;DHT22;8206;51.440;6.914;2023-02-11T11:45:52;8.20;99.90
16198;DHT22;8206;51.440;6.914;2023-02-11T11:48:23;8.20;99.90
16198;DHT22;8206;51.440;6.914;2023-02-11T11:50:52;8.30;99.90
16198;DHT22;8206;51.440;6.914;2023-02-11T11:53:23;8.30;99.90
16198;DHT22;8206;51.440;6.914;2023-02-11T11:55:59;8.20;99.90
16198;DHT22;8206;51.440;6.914;2023-02-11T11:58:29;8.10;99.90
16198;DHT22;8206;51.440;6.914;2023-02-11T12:01:04;8.10;99.90
16198;DHT22;8206;51.440;6.914;2023-02-11T12:06:40;8.20;99.90
16198;DHT22;8206;51.440;6.914;2023-02-11T12:09:17;8.30;99.90
16198;DHT22;8206;51.440;6.914;2023-02-11T12:12:08;8.30;99.90
16198;DHT22;8206;51.440;6.914;2023-02-11T12:14:46;8.40;99.90
16198;DHT22;8206;51.440;6.914;2023-02-11T12:17:25;8.40;99.90
16198;DHT22;8206;51.440;6.914;2023-02-11T12:22:55;8.50;99.90
16198;DHT22;8206;51.440;6.914;2023-02-11T12:25:35;8.40;99.90
16198;DHT22;8206;51.440;6.914;2023-02-11T12:28:19;8.30;99.90
16198;DHT22;8206;51.440;6.914;2023-02-11T12:31:05;8.30;99.90
16198;DHT22;8206;51.440;6.914;2023-02-11T12:33:51;8.40;99.90
16198;DHT22;8206;51.440;6.914;2023-02-11T12:36:32;8.40;99.90
16198;DHT22;8206;51.440;6.914;2023-02-11T12:39:12;8.40;99.90
16198;DHT22;8206;51.440;6.914;2023-02-11T12:41:56;8.40;99.90
16198;DHT22;8206;51.440;6.914;2023-02-11T12:44:58;8.40;99.90
16198;DHT22;8206;51.440;6.914;2023-02-11T12:47:36;8.40;99.90
16198;DHT22;8206;51.440;6.914;2023-02-11T12:50:15;8.40;99.90
16198;DHT22;8206;51.440;6.914;2023-02-11T12:52:52;8.40;99.90
16198;DHT22;8206;51.440;6.914;2023-02-11T12:55:25;8.40;99.90
16198;DHT22;8206;51.440;6.914;2023-02-11T12:57:55;8.50;99.90
16198;DHT22;8206;51.440;6.914;2023-02-11T13:00:28;8.60;99.90
16198;DHT22;8206;51.440;6.914;2023-02-11T13:03:00;8.80;99.90
16198;DHT22;8206;51.440;6.914;2023-02-11T13:05:33;8.90;99.90
16198;DHT22;8206;51.440;6.914;2023-02-11T13:08:07;8.90;99.90
16198;DHT22;8206;51.440;6.914;2023-02-11T13:10:38;8.90;99.90
16198;DHT22;8206;51.440;6.914;2023-02-11T13:13:14;8.90;99.90
16198;DHT22;8206;51.440;6.914;2023-02-11T13:15:47;8.90;99.90
16198;DHT22;8206;51.440;6.914;2023-02-11T13:18:35;8.90;99.90
16198;DHT22;8206;51.440;6.914;2023-02-11T13:21:22;8.90;99.90
16198;DHT22;8206;51.440;6.914;2023-02-11T13:23:55;9.00;99.90
16198;DHT22;8206;51.440;6.914;2023-02-11T13:26:26;9.00;99.90
16198;DHT22;8206;51.440;6.914;2023-02-11T13:29:00;9.10;99.90
16198;DHT22;8206;51.440;6.914;2023-02-11T13:31:34;9.10;99.90
16198;DHT22;8206;51.440;6.914;2023-02-11T13:34:01;9.10;99.90
16198;DHT22;8206;51.440;6.914;2023-02-11T13:36:30;9.10;99.90
16198;DHT22;8206;51.440;6.914;2023-02-11T13:39:00;9.00;99.90
16198;DHT22;8206;51.440;6.914;2023-02-11T13:41:33;9.00;99.90
16198;DHT22;8206;51.440;6.914;2023-02-11T13:44:04;9.00;99.90
16198;DHT22;8206;51.440;6.914;2023-02-11T13:46:58;9.00;99.90
16198;DHT22;8206;51.440;6.914;2023-02-11T13:49:30;9.00;99.90
16198;DHT22;8206;51.440;6.914;2023-02-11T13:51:57;8.90;99.90
16198;DHT22;8206;51.440;6.914;2023-02-11T13:54:29;8.90;99.90
16198;DHT22;8206;51.440;6.914;2023-02-11T14:03:27;8.90;99.90
16198;DHT22;8206;51.440;6.914;2023-02-11T14:06:23;8.90;99.90
16198;DHT22;8206;51.440;6.914;2023-02-11T14:09:37;8.90;99.90
16198;DHT22;8206;51.440;6.914;2023-02-11T14:12:23;8.90;99.90
16198;DHT22;8206;51.440;6.914;2023-02-11T14:14:58;8.90;99.90
16198;DHT22;8206;51.440;6.914;2023-02-11T14:17:32;9.00;99.90
16198;DHT22;8206;51.440;6.914;2023-02-11T14:20:03;9.10;99.90
16198;DHT22;8206;51.440;6.914;2023-02-11T14:22:39;9.20;99.90
16198;DHT22;8206;51.440;6.914;2023-02-11T14:25:17;9.40;99.90
16198;DHT22;8206;51.440;6.914;2023-02-11T14:27:48;9.40;99.90
16198;DHT22;8206;51.440;6.914;2023-02-11T14:30:47;9.40;99.90
16198;DHT22;8206;51.440;6.914;2023-02-11T14:36:38;9.40;99.90
16198;DHT22;8206;51.440;6.914;2023-02-11T14:39:15;9.60;99.90
16198;DHT22;8206;51.440;6.914;2023-02-11T14:41:45;9.80;99.90
16198;DHT22;8206;51.440;6.914;2023-02-11T14:44:18;9.80;99.90
16198;DHT22;8206;51.440;6.914;2023-02-11T14:46:47;9.90;99.90
16198;DHT22;8206;51.440;6.914;2023-02-11T14:49:23;9.90;99.90
16198;DHT22;8206;51.440;6.914;2023-02-11T14:51:55;9.80;99.90
16198;DHT22;8206;51.440;6.914;2023-02-11T14:54:25;9.90;99.90
16198;DHT22;8206;51.440;6.914;2023-02-11T14:57:05;9.90;99.90
16198;DHT22;8206;51.440;6.914;2023-02-11T14:59:33;9.80;99.90
16198;DHT22;8206;51.440;6.914;2023-02-11T15:02:00;9.80;99.90
16198;DHT22;8206;51.440;6.914;2023-02-11T15:04:29;9.80;99.90
16198;DHT22;8206;51.440;6.914;2023-02-11T15:07:02;9.70;99.90
16198;DHT22;8206;51.440;6.914;2023-02-11T15:11:56;9.70;99.90
16198;DHT22;8206;51.440;6.914;2023-02-11T15:14:26;9.60;99.90
16198;DHT22;8206;51.440;6.914;2023-02-11T15:16:56;9.60;99.90
16198;DHT22;8206;51.440;6.914;2023-02-11T15:19:27;9.50;99.90
16198;DHT22;8206;51.440;6.914;2023-02-11T15:21:54;9.40;99.90
16198;DHT22;8206;51.440;6.914;2023-02-11T15:24:25;9.30;99.90
16198;DHT22;8206;51.440;6.914;2023-02-11T15:26:57;9.20;99.90
16198;DHT22;8206;51.440;6.914;2023-02-11T15:29:33;9.20;99.90
16198;DHT22;8206;51.440;6.914;2023-02-11T15:32:05;9.20;99.90
16198;DHT22;8206;51.440;6.914;2023-02-11T15:34:32;9.20;99.90
16198;DHT22;8206;51.440;6.914;2023-02-11T15:36:59;9.10;99.90
16198;DHT22;8206;51.440;6.914;2023-02-11T15:39:33;9.20;99.90
16198;DHT22;8206;51.440;6.914;2023-02-11T15:42:19;9.20;99.90
16198;DHT22;8206;51.440;6.914;2023-02-11T15:44:46;9.20;99.90
16198;DHT22;8206;51.440;6.914;2023-02-11T15:47:17;9.10;99.90
16198;DHT22;8206;51.440;6.914;2023-02-11T15:49:45;9.10;99.90
16198;DHT22;8206;51.440;6.914;2023-02-11T15:52:13;9.10;99.90
16198;DHT22;8206;51.440;6.914;2023-02-11T15:54:48;9.10;99.90
16198;DHT22;8206;51.440;6.914;2023-02-11T15:57:15;9.10;99.90
16198;DHT22;8206;51.440;6.914;2023-02-11T15:59:46;9.10;99.90
16198;DHT22;8206;51.440;6.914;2023-02-11T16:02:16;9.00;99.90
16198;DHT22;8206;51.440;6.914;2023-02-11T16:04:48;9.00;99.90
16198;DHT22;8206;51.440;6.914;2023-02-11T16:07:38;9.00;99.90
16198;DHT22;8206;51.440;6.914;2023-02-11T16:10:21;8.90;99.90
16198;DHT22;8206;51.440;6.914;2023-02-11T16:12:58;8.90;99.90
16198;DHT22;8206;51.440;6.914;2023-02-11T16:15:41;8.80;99.90
16198;DHT22;8206;51.440;6.914;2023-02-11T16:18:27;8.80;99.90
16198;DHT22;8206;51.440;6.914;2023-02-11T16:20:56;8.70;99.90
16198;DHT22;8206;51.440;6.914;2023-02-11T16:23:26;8.70;99.90
16198;DHT22;8206;51.440;6.914;2023-02-11T16:25:59;8.70;99.90
16198;DHT22;8206;51.440;6.914;2023-02-11T16:28:27;8.70;99.90
16198;DHT22;8206;51.440;6.914;2023-02-11T16:30:54;8.70;99.90
16198;DHT22;8206;51.440;6.914;2023-02-11T16:33:22;8.70;99.90
16198;DHT22;8206;51.440;6.914;2023-02-11T16:35:48;8.70;99.90
16198;DHT22;8206;51.440;6.914;2023-02-11T16:38:15;8.70;99.90
16198;DHT22;8206;51.440;6.914;2023-02-11T16:40:42;8.70;99.90
16198;DHT22;8206;51.440;6.914;2023-02-11T16:43:16;8.60;99.90
16198;DHT22;8206;51.440;6.914;2023-02-11T16:45:43;8.70;99.90
16198;DHT22;8206;51.440;6.914;2023-02-11T16:48:15;8.70;99.90
16198;DHT22;8206;51.440;6.914;2023-02-11T16:50:45;8.70;99.90